sensor_id;sensor_type;location;lat;lon;timestamp;P1;durP1;ratioP1;P2;durP2;ratioP2
50671;SDS011;46021;55.882;37.654;2023-05-10T00:01:52;19.13;;;8.63;;
50671;SDS011;46021;55.882;37.654;2023-05-10T00:04:21;19.85;;;8.70;;
50671;SDS011;46021;55.882;37.654;2023-05-10T00:06:52;19.67;;;7.65;;
50671;SDS011;46021;55.882;37.654;2023-05-10T00:09:20;14.95;;;7.72;;
50671;SDS011;46021;55.882;37.654;2023-05-10T00:11:47;18.23;;;7.75;;
50671;SDS011;46021;55.882;37.654;2023-05-10T00:14:14;19.03;;;9.53;;
50671;SDS011;46021;55.882;37.654;2023-05-10T00:16:41;18.02;;;8.32;;
50671;SDS011;46021;55.882;37.654;2023-05-10T00:19:08;13.53;;;7.27;;
50671;SDS011;46021;55.882;37.654;2023-05-10T00:21:37;16.87;;;7.17;;
50671;SDS011;46021;55.882;37.654;2023-05-10T00:24:04;15.85;;;7.47;;
50671;SDS011;46021;55.882;37.654;2023-05-10T00:26:32;16.35;;;7.15;;
50671;SDS011;46021;55.882;37.654;2023-05-10T00:28:59;18.45;;;7.07;;
50671;SDS011;46021;55.882;37.654;2023-05-10T00:31:27;14.88;;;7.68;;
50671;SDS011;46021;55.882;37.654;2023-05-10T00:33:54;19.70;;;7.60;;
50671;SDS011;46021;55.882;37.654;2023-05-10T00:36:21;16.60;;;7.80;;
50671;SDS011;46021;55.882;37.654;2023-05-10T00:38:50;27.35;;;8.80;;
50671;SDS011;46021;55.882;37.654;2023-05-10T00:41:17;20.50;;;7.72;;
50671;SDS011;46021;55.882;37.654;2023-05-10T00:43:45;21.88;;;8.25;;
50671;SDS011;46021;55.882;37.654;2023-05-10T00:48:41;19.30;;;7.45;;
50671;SDS011;46021;55.882;37.654;2023-05-10T00:51:08;18.33;;;7.88;;
50671;SDS011;46021;55.882;37.654;2023-05-10T00:53:35;16.67;;;7.55;;
50671;SDS011;46021;55.882;37.654;2023-05-10T00:56:04;18.05;;;7.95;;
50671;SDS011;46021;55.882;37.654;2023-05-10T00:58:32;20.52;;;8.05;;
50671;SDS011;46021;55.882;37.654;2023-05-10T01:00:59;15.65;;;7.47;;
50671;SDS011;46021;55.882;37.654;2023-05-10T01:03:28;17.55;;;7.60;;
50671;SDS011;46021;55.882;37.654;2023-05-10T01:05:55;19.40;;;7.28;;
50671;SDS011;46021;55.882;37.654;2023-05-10T01:10:51;15.23;;;7.53;;
50671;SDS011;46021;55.882;37.654;2023-05-10T01:13:23;13.73;;;6.93;;
50671;SDS011;46021;55.882;37.654;2023-05-10T01:15:58;17.85;;;7.88;;
50671;SDS011;46021;55.882;37.654;2023-05-10T01:18:27;16.85;;;7.90;;
50671;SDS011;46021;55.882;37.654;2023-05-10T01:20:59;16.23;;;7.65;;
50671;SDS011;46021;55.882;37.654;2023-05-10T01:26:39;25.13;;;8.15;;
50671;SDS011;46021;55.882;37.654;2023-05-10T01:29:42;14.00;;;7.00;;
50671;SDS011;46021;55.882;37.654;2023-05-10T01:32:36;14.35;;;7.95;;
50671;SDS011;46021;55.882;37.654;2023-05-10T01:35:09;24.35;;;7.38;;
50671;SDS011;46021;55.882;37.654;2023-05-10T01:37:42;17.40;;;7.10;;
50671;SDS011;46021;55.882;37.654;2023-05-10T01:40:16;17.30;;;7.28;;
50671;SDS011;46021;55.882;37.654;2023-05-10T01:42:48;12.80;;;7.07;;
50671;SDS011;46021;55.882;37.654;2023-05-10T01:45:20;22.52;;;7.00;;
50671;SDS011;46021;55.882;37.654;2023-05-10T01:47:57;16.15;;;6.63;;
50671;SDS011;46021;55.882;37.654;2023-05-10T01:50:32;14.73;;;6.90;;
50671;SDS011;46021;55.882;37.654;2023-05-10T01:53:01;15.15;;;7.10;;
50671;SDS011;46021;55.882;37.654;2023-05-10T01:55:32;13.77;;;6.82;;
50671;SDS011;46021;55.882;37.654;2023-05-10T01:58:07;20.98;;;7.85;;
50671;SDS011;46021;55.882;37.654;2023-05-10T02:00:39;19.90;;;8.00;;
50671;SDS011;46021;55.882;37.654;2023-05-10T02:03:10;12.88;;;5.88;;
50671;SDS011;46021;55.882;37.654;2023-05-10T02:05:40;16.10;;;6.93;;
50671;SDS011;46021;55.882;37.654;2023-05-10T02:08:09;13.80;;;6.30;;
50671;SDS011;46021;55.882;37.654;2023-05-10T02:10:38;15.05;;;6.60;;
50671;SDS011;46021;55.882;37.654;2023-05-10T02:13:07;14.52;;;6.82;;
50671;SDS011;46021;55.882;37.654;2023-05-10T02:15:34;15.68;;;6.55;;
50671;SDS011;46021;55.882;37.654;2023-05-10T02:18:04;11.45;;;6.15;;
50671;SDS011;46021;55.882;37.654;2023-05-10T02:20:34;12.18;;;6.80;;
50671;SDS011;46021;55.882;37.654;2023-05-10T02:23:03;15.43;;;7.13;;
50671;SDS011;46021;55.882;37.654;2023-05-10T02:25:31;13.00;;;6.82;;
50671;SDS011;46021;55.882;37.654;2023-05-10T02:28:00;17.02;;;6.68;;
50671;SDS011;46021;55.882;37.654;2023-05-10T02:30:30;13.20;;;6.80;;
50671;SDS011;46021;55.882;37.654;2023-05-10T02:32:59;13.95;;;6.80;;
50671;SDS011;46021;55.882;37.654;2023-05-10T02:35:27;11.77;;;6.68;;
50671;SDS011;46021;55.882;37.654;2023-05-10T02:37:56;19.48;;;6.95;;
50671;SDS011;46021;55.882;37.654;2023-05-10T02:40:25;14.40;;;6.65;;
50671;SDS011;46021;55.882;37.654;2023-05-10T02:42:55;10.45;;;6.57;;
50671;SDS011;46021;55.882;37.654;2023-05-10T02:45:25;12.82;;;6.72;;
50671;SDS011;46021;55.882;37.654;2023-05-10T02:47:55;14.98;;;6.93;;
50671;SDS011;46021;55.882;37.654;2023-05-10T02:50:23;15.18;;;6.50;;
50671;SDS011;46021;55.882;37.654;2023-05-10T02:52:56;14.52;;;6.68;;
50671;SDS011;46021;55.882;37.654;2023-05-10T02:55:31;13.25;;;6.07;;
50671;SDS011;46021;55.882;37.654;2023-05-10T02:58:02;17.08;;;7.22;;
50671;SDS011;46021;55.882;37.654;2023-05-10T03:00:30;16.20;;;7.07;;
50671;SDS011;46021;55.882;37.654;2023-05-10T03:02:58;13.43;;;6.85;;
50671;SDS011;46021;55.882;37.654;2023-05-10T03:05:27;12.07;;;6.57;;
50671;SDS011;46021;55.882;37.654;2023-05-10T03:07:55;9.63;;;6.60;;
50671;SDS011;46021;55.882;37.654;2023-05-10T03:10:26;10.98;;;6.72;;
50671;SDS011;46021;55.882;37.654;2023-05-10T03:12:59;26.77;;;11.43;;
50671;SDS011;46021;55.882;37.654;2023-05-10T03:15:35;20.88;;;6.97;;
50671;SDS011;46021;55.882;37.654;2023-05-10T03:18:10;15.18;;;6.45;;
50671;SDS011;46021;55.882;37.654;2023-05-10T03:20:42;16.38;;;6.65;;
50671;SDS011;46021;55.882;37.654;2023-05-10T03:23:20;21.00;;;7.07;;
50671;SDS011;46021;55.882;37.654;2023-05-10T03:25:51;16.60;;;6.93;;
50671;SDS011;46021;55.882;37.654;2023-05-10T03:28:19;10.80;;;5.53;;
50671;SDS011;46021;55.882;37.654;2023-05-10T03:30:47;18.75;;;6.50;;
50671;SDS011;46021;55.882;37.654;2023-05-10T03:33:16;19.20;;;7.20;;
50671;SDS011;46021;55.882;37.654;2023-05-10T03:35:45;21.75;;;7.72;;
50671;SDS011;46021;55.882;37.654;2023-05-10T03:38:13;24.40;;;7.90;;
50671;SDS011;46021;55.882;37.654;2023-05-10T03:40:40;16.33;;;7.20;;
50671;SDS011;46021;55.882;37.654;2023-05-10T03:43:09;23.17;;;7.73;;
50671;SDS011;46021;55.882;37.654;2023-05-10T03:45:36;18.80;;;6.88;;
50671;SDS011;46021;55.882;37.654;2023-05-10T03:48:03;18.00;;;6.90;;
50671;SDS011;46021;55.882;37.654;2023-05-10T03:50:31;28.98;;;7.68;;
50671;SDS011;46021;55.882;37.654;2023-05-10T03:52:58;29.43;;;8.93;;
50671;SDS011;46021;55.882;37.654;2023-05-10T03:55:27;18.83;;;8.13;;
50671;SDS011;46021;55.882;37.654;2023-05-10T03:57:55;14.70;;;6.07;;
50671;SDS011;46021;55.882;37.654;2023-05-10T04:00:24;24.83;;;6.68;;
50671;SDS011;46021;55.882;37.654;2023-05-10T04:02:53;17.77;;;6.78;;
50671;SDS011;46021;55.882;37.654;2023-05-10T04:05:22;16.38;;;6.22;;
50671;SDS011;46021;55.882;37.654;2023-05-10T04:07:51;23.05;;;6.47;;
50671;SDS011;46021;55.882;37.654;2023-05-10T04:10:18;13.33;;;6.20;;
50671;SDS011;46021;55.882;37.654;2023-05-10T04:12:46;15.80;;;6.65;;
50671;SDS011;46021;55.882;37.654;2023-05-10T04:15:13;17.58;;;6.45;;
50671;SDS011;46021;55.882;37.654;2023-05-10T04:17:42;14.15;;;6.20;;
50671;SDS011;46021;55.882;37.654;2023-05-10T04:20:10;15.50;;;6.35;;
50671;SDS011;46021;55.882;37.654;2023-05-10T04:22:38;14.48;;;6.25;;
50671;SDS011;46021;55.882;37.654;2023-05-10T04:25:05;18.93;;;7.13;;
50671;SDS011;46021;55.882;37.654;2023-05-10T04:27:33;19.58;;;6.43;;
50671;SDS011;46021;55.882;37.654;2023-05-10T04:30:00;15.35;;;6.35;;
50671;SDS011;46021;55.882;37.654;2023-05-10T04:32:32;11.07;;;5.30;;
50671;SDS011;46021;55.882;37.654;2023-05-10T04:35:00;27.00;;;9.37;;
50671;SDS011;46021;55.882;37.654;2023-05-10T04:37:29;18.67;;;7.68;;
50671;SDS011;46021;55.882;37.654;2023-05-10T04:39:56;23.70;;;8.40;;
50671;SDS011;46021;55.882;37.654;2023-05-10T04:42:25;16.42;;;7.07;;
50671;SDS011;46021;55.882;37.654;2023-05-10T04:44:52;12.93;;;5.82;;
50671;SDS011;46021;55.882;37.654;2023-05-10T04:47:19;15.77;;;6.03;;
50671;SDS011;46021;55.882;37.654;2023-05-10T04:49:46;16.23;;;5.90;;
50671;SDS011;46021;55.882;37.654;2023-05-10T04:52:15;19.13;;;5.80;;
50671;SDS011;46021;55.882;37.654;2023-05-10T04:54:43;19.45;;;5.78;;
50671;SDS011;46021;55.882;37.654;2023-05-10T04:57:10;10.87;;;5.40;;
50671;SDS011;46021;55.882;37.654;2023-05-10T04:59:37;25.93;;;5.50;;
50671;SDS011;46021;55.882;37.654;2023-05-10T05:02:04;12.30;;;5.07;;
50671;SDS011;46021;55.882;37.654;2023-05-10T05:04:31;19.47;;;5.57;;
50671;SDS011;46021;55.882;37.654;2023-05-10T05:07:00;13.63;;;5.20;;
50671;SDS011;46021;55.882;37.654;2023-05-10T05:09:29;10.95;;;4.38;;
50671;SDS011;46021;55.882;37.654;2023-05-10T05:11:57;15.23;;;4.90;;
50671;SDS011;46021;55.882;37.654;2023-05-10T05:14:24;18.13;;;5.35;;
50671;SDS011;46021;55.882;37.654;2023-05-10T05:16:52;13.38;;;4.63;;
50671;SDS011;46021;55.882;37.654;2023-05-10T05:19:19;16.38;;;4.70;;
50671;SDS011;46021;55.882;37.654;2023-05-10T05:21:46;9.02;;;4.63;;
50671;SDS011;46021;55.882;37.654;2023-05-10T05:24:13;10.67;;;4.10;;
50671;SDS011;46021;55.882;37.654;2023-05-10T05:26:42;14.00;;;4.70;;
50671;SDS011;46021;55.882;37.654;2023-05-10T05:29:09;11.23;;;4.18;;
50671;SDS011;46021;55.882;37.654;2023-05-10T05:31:36;8.80;;;3.85;;
50671;SDS011;46021;55.882;37.654;2023-05-10T05:34:03;13.80;;;3.40;;
50671;SDS011;46021;55.882;37.654;2023-05-10T05:36:31;8.02;;;3.53;;
50671;SDS011;46021;55.882;37.654;2023-05-10T05:38:58;11.32;;;3.33;;
50671;SDS011;46021;55.882;37.654;2023-05-10T05:41:25;9.60;;;3.45;;
50671;SDS011;46021;55.882;37.654;2023-05-10T05:43:54;14.25;;;3.80;;
50671;SDS011;46021;55.882;37.654;2023-05-10T05:46:21;12.90;;;3.13;;
50671;SDS011;46021;55.882;37.654;2023-05-10T05:48:48;11.63;;;3.70;;
50671;SDS011;46021;55.882;37.654;2023-05-10T05:51:15;8.63;;;3.40;;
50671;SDS011;46021;55.882;37.654;2023-05-10T05:53:42;9.57;;;3.40;;
50671;SDS011;46021;55.882;37.654;2023-05-10T05:56:09;15.60;;;3.67;;
50671;SDS011;46021;55.882;37.654;2023-05-10T05:58:36;9.55;;;2.90;;
50671;SDS011;46021;55.882;37.654;2023-05-10T06:01:05;6.75;;;3.30;;
50671;SDS011;46021;55.882;37.654;2023-05-10T06:03:33;8.30;;;3.00;;
50671;SDS011;46021;55.882;37.654;2023-05-10T06:06:00;14.57;;;3.00;;
50671;SDS011;46021;55.882;37.654;2023-05-10T06:08:27;13.45;;;3.25;;
50671;SDS011;46021;55.882;37.654;2023-05-10T06:10:54;9.00;;;2.63;;
50671;SDS011;46021;55.882;37.654;2023-05-10T06:13:21;9.50;;;3.13;;
50671;SDS011;46021;55.882;37.654;2023-05-10T06:15:48;11.35;;;2.92;;
50671;SDS011;46021;55.882;37.654;2023-05-10T06:18:17;23.45;;;10.73;;
50671;SDS011;46021;55.882;37.654;2023-05-10T06:20:44;17.08;;;3.83;;
50671;SDS011;46021;55.882;37.654;2023-05-10T06:23:11;11.80;;;2.92;;
50671;SDS011;46021;55.882;37.654;2023-05-10T06:25:39;19.90;;;3.15;;
50671;SDS011;46021;55.882;37.654;2023-05-10T06:28:06;12.38;;;3.90;;
50671;SDS011;46021;55.882;37.654;2023-05-10T06:30:33;13.82;;;3.45;;
50671;SDS011;46021;55.882;37.654;2023-05-10T06:33:00;10.77;;;3.20;;
50671;SDS011;46021;55.882;37.654;2023-05-10T06:35:29;14.50;;;3.55;;
50671;SDS011;46021;55.882;37.654;2023-05-10T06:37:56;18.10;;;3.15;;
50671;SDS011;46021;55.882;37.654;2023-05-10T06:40:23;13.80;;;4.15;;
50671;SDS011;46021;55.882;37.654;2023-05-10T06:42:51;11.07;;;3.33;;
50671;SDS011;46021;55.882;37.654;2023-05-10T06:45:18;14.18;;;3.33;;
50671;SDS011;46021;55.882;37.654;2023-05-10T06:47:46;4.20;;;2.40;;
50671;SDS011;46021;55.882;37.654;2023-05-10T06:50:13;9.20;;;3.13;;
50671;SDS011;46021;55.882;37.654;2023-05-10T06:52:42;5.43;;;2.95;;
50671;SDS011;46021;55.882;37.654;2023-05-10T06:55:09;9.93;;;2.95;;
50671;SDS011;46021;55.882;37.654;2023-05-10T06:57:37;11.10;;;3.05;;
50671;SDS011;46021;55.882;37.654;2023-05-10T07:00:04;9.57;;;2.70;;
50671;SDS011;46021;55.882;37.654;2023-05-10T07:02:33;11.30;;;3.20;;
50671;SDS011;46021;55.882;37.654;2023-05-10T07:05:01;10.10;;;2.53;;
50671;SDS011;46021;55.882;37.654;2023-05-10T07:07:31;8.98;;;3.25;;
50671;SDS011;46021;55.882;37.654;2023-05-10T07:10:00;11.32;;;2.90;;
50671;SDS011;46021;55.882;37.654;2023-05-10T07:12:30;8.82;;;3.00;;
50671;SDS011;46021;55.882;37.654;2023-05-10T07:14:57;8.02;;;2.72;;
50671;SDS011;46021;55.882;37.654;2023-05-10T07:17:24;15.85;;;3.55;;
50671;SDS011;46021;55.882;37.654;2023-05-10T07:19:51;7.25;;;2.60;;
50671;SDS011;46021;55.882;37.654;2023-05-10T07:22:18;16.80;;;3.13;;
50671;SDS011;46021;55.882;37.654;2023-05-10T07:24:46;8.07;;;2.63;;
50671;SDS011;46021;55.882;37.654;2023-05-10T07:27:14;6.30;;;2.63;;
50671;SDS011;46021;55.882;37.654;2023-05-10T07:29:41;11.13;;;3.55;;
50671;SDS011;46021;55.882;37.654;2023-05-10T07:32:08;8.52;;;3.33;;
50671;SDS011;46021;55.882;37.654;2023-05-10T07:34:35;14.15;;;4.10;;
50671;SDS011;46021;55.882;37.654;2023-05-10T07:37:03;12.75;;;3.47;;
50671;SDS011;46021;55.882;37.654;2023-05-10T07:39:31;8.02;;;3.30;;
50671;SDS011;46021;55.882;37.654;2023-05-10T07:41:58;6.00;;;2.58;;
50671;SDS011;46021;55.882;37.654;2023-05-10T07:44:27;7.60;;;2.80;;
50671;SDS011;46021;55.882;37.654;2023-05-10T07:46:54;8.10;;;3.03;;
50671;SDS011;46021;55.882;37.654;2023-05-10T07:49:21;12.93;;;3.20;;
50671;SDS011;46021;55.882;37.654;2023-05-10T07:51:50;11.73;;;2.83;;
50671;SDS011;46021;55.882;37.654;2023-05-10T07:54:17;14.93;;;5.32;;
50671;SDS011;46021;55.882;37.654;2023-05-10T07:56:44;7.55;;;2.40;;
50671;SDS011;46021;55.882;37.654;2023-05-10T07:59:14;9.75;;;2.92;;
50671;SDS011;46021;55.882;37.654;2023-05-10T08:01:44;10.40;;;3.10;;
50671;SDS011;46021;55.882;37.654;2023-05-10T08:04:11;6.75;;;2.17;;
50671;SDS011;46021;55.882;37.654;2023-05-10T08:06:39;9.73;;;2.60;;
50671;SDS011;46021;55.882;37.654;2023-05-10T08:09:06;8.38;;;2.67;;
50671;SDS011;46021;55.882;37.654;2023-05-10T08:11:33;5.95;;;2.78;;
50671;SDS011;46021;55.882;37.654;2023-05-10T08:14:01;4.78;;;2.28;;
50671;SDS011;46021;55.882;37.654;2023-05-10T08:16:28;4.40;;;1.92;;
50671;SDS011;46021;55.882;37.654;2023-05-10T08:18:56;8.00;;;2.30;;
50671;SDS011;46021;55.882;37.654;2023-05-10T08:21:23;6.05;;;2.55;;
50671;SDS011;46021;55.882;37.654;2023-05-10T08:23:51;8.65;;;2.92;;
50671;SDS011;46021;55.882;37.654;2023-05-10T08:26:18;4.45;;;2.35;;
50671;SDS011;46021;55.882;37.654;2023-05-10T08:31:13;7.97;;;2.65;;
50671;SDS011;46021;55.882;37.654;2023-05-10T08:33:40;5.88;;;2.20;;
50671;SDS011;46021;55.882;37.654;2023-05-10T08:36:08;9.43;;;2.45;;
50671;SDS011;46021;55.882;37.654;2023-05-10T08:41:04;11.27;;;2.92;;
50671;SDS011;46021;55.882;37.654;2023-05-10T08:43:32;7.85;;;2.30;;
50671;SDS011;46021;55.882;37.654;2023-05-10T08:46:02;6.47;;;2.28;;
50671;SDS011;46021;55.882;37.654;2023-05-10T08:48:31;7.47;;;1.90;;
50671;SDS011;46021;55.882;37.654;2023-05-10T08:51:01;5.90;;;2.55;;
50671;SDS011;46021;55.882;37.654;2023-05-10T08:53:32;8.48;;;3.30;;
50671;SDS011;46021;55.882;37.654;2023-05-10T08:56:02;9.98;;;3.58;;
50671;SDS011;46021;55.882;37.654;2023-05-10T08:58:29;5.20;;;2.00;;
50671;SDS011;46021;55.882;37.654;2023-05-10T09:00:57;5.00;;;2.28;;
50671;SDS011;46021;55.882;37.654;2023-05-10T09:03:25;20.25;;;12.07;;
50671;SDS011;46021;55.882;37.654;2023-05-10T09:05:53;9.30;;;1.45;;
50671;SDS011;46021;55.882;37.654;2023-05-10T09:08:21;6.00;;;1.30;;
50671;SDS011;46021;55.882;37.654;2023-05-10T09:10:52;14.13;;;1.60;;
50671;SDS011;46021;55.882;37.654;2023-05-10T09:13:21;5.38;;;1.40;;
50671;SDS011;46021;55.882;37.654;2023-05-10T09:15:48;4.45;;;1.35;;
50671;SDS011;46021;55.882;37.654;2023-05-10T09:18:16;5.28;;;1.98;;
50671;SDS011;46021;55.882;37.654;2023-05-10T09:20:43;5.18;;;1.52;;
50671;SDS011;46021;55.882;37.654;2023-05-10T09:23:10;3.10;;;1.63;;
50671;SDS011;46021;55.882;37.654;2023-05-10T09:25:38;3.33;;;1.58;;
50671;SDS011;46021;55.882;37.654;2023-05-10T09:28:09;6.07;;;3.40;;
50671;SDS011;46021;55.882;37.654;2023-05-10T09:30:36;3.33;;;1.38;;
50671;SDS011;46021;55.882;37.654;2023-05-10T09:33:04;2.40;;;1.30;;
50671;SDS011;46021;55.882;37.654;2023-05-10T09:35:32;3.58;;;1.67;;
50671;SDS011;46021;55.882;37.654;2023-05-10T09:38:00;5.57;;;2.33;;
50671;SDS011;46021;55.882;37.654;2023-05-10T09:40:29;2.65;;;1.45;;
50671;SDS011;46021;55.882;37.654;2023-05-10T09:42:57;2.25;;;1.20;;
50671;SDS011;46021;55.882;37.654;2023-05-10T09:45:27;4.13;;;1.40;;
50671;SDS011;46021;55.882;37.654;2023-05-10T09:47:55;8.52;;;1.40;;
50671;SDS011;46021;55.882;37.654;2023-05-10T09:50:22;5.38;;;1.25;;
50671;SDS011;46021;55.882;37.654;2023-05-10T09:52:50;2.30;;;1.15;;
50671;SDS011;46021;55.882;37.654;2023-05-10T09:55:20;9.20;;;2.40;;
50671;SDS011;46021;55.882;37.654;2023-05-10T09:57:49;7.15;;;1.75;;
50671;SDS011;46021;55.882;37.654;2023-05-10T10:00:26;2.08;;;1.10;;
50671;SDS011;46021;55.882;37.654;2023-05-10T10:02:54;4.10;;;1.92;;
50671;SDS011;46021;55.882;37.654;2023-05-10T10:05:27;4.68;;;1.65;;
50671;SDS011;46021;55.882;37.654;2023-05-10T10:07:55;2.65;;;1.33;;
50671;SDS011;46021;55.882;37.654;2023-05-10T10:10:24;5.53;;;1.42;;
50671;SDS011;46021;55.882;37.654;2023-05-10T10:15:18;3.25;;;1.50;;
50671;SDS011;46021;55.882;37.654;2023-05-10T10:17:49;7.47;;;1.83;;
50671;SDS011;46021;55.882;37.654;2023-05-10T10:20:17;3.67;;;1.40;;
50671;SDS011;46021;55.882;37.654;2023-05-10T10:22:45;7.90;;;1.80;;
50671;SDS011;46021;55.882;37.654;2023-05-10T10:25:14;3.63;;;1.48;;
50671;SDS011;46021;55.882;37.654;2023-05-10T10:27:43;2.90;;;1.40;;
50671;SDS011;46021;55.882;37.654;2023-05-10T10:30:19;5.22;;;1.58;;
50671;SDS011;46021;55.882;37.654;2023-05-10T10:33:10;2.75;;;1.27;;
50671;SDS011;46021;55.882;37.654;2023-05-10T10:35:55;3.15;;;1.35;;
50671;SDS011;46021;55.882;37.654;2023-05-10T10:38:24;2.67;;;1.20;;
50671;SDS011;46021;55.882;37.654;2023-05-10T10:41:01;4.22;;;1.60;;
50671;SDS011;46021;55.882;37.654;2023-05-10T10:43:29;3.63;;;1.52;;
50671;SDS011;46021;55.882;37.654;2023-05-10T10:46:12;7.10;;;1.63;;
50671;SDS011;46021;55.882;37.654;2023-05-10T10:48:43;2.78;;;1.30;;
50671;SDS011;46021;55.882;37.654;2023-05-10T10:51:15;5.43;;;1.52;;
50671;SDS011;46021;55.882;37.654;2023-05-10T10:53:42;3.33;;;1.58;;
50671;SDS011;46021;55.882;37.654;2023-05-10T10:56:10;3.42;;;1.60;;
50671;SDS011;46021;55.882;37.654;2023-05-10T10:58:40;2.78;;;1.45;;
50671;SDS011;46021;55.882;37.654;2023-05-10T11:03:39;2.40;;;1.50;;
50671;SDS011;46021;55.882;37.654;2023-05-10T11:08:35;3.37;;;1.60;;
50671;SDS011;46021;55.882;37.654;2023-05-10T11:11:09;4.05;;;1.67;;
50671;SDS011;46021;55.882;37.654;2023-05-10T11:13:42;5.20;;;2.03;;
50671;SDS011;46021;55.882;37.654;2023-05-10T11:16:11;4.20;;;1.70;;
50671;SDS011;46021;55.882;37.654;2023-05-10T11:18:40;5.32;;;1.60;;
50671;SDS011;46021;55.882;37.654;2023-05-10T11:21:19;3.20;;;1.60;;
50671;SDS011;46021;55.882;37.654;2023-05-10T11:23:49;5.90;;;1.60;;
50671;SDS011;46021;55.882;37.654;2023-05-10T11:26:21;6.40;;;1.50;;
50671;SDS011;46021;55.882;37.654;2023-05-10T11:28:51;6.53;;;1.63;;
50671;SDS011;46021;55.882;37.654;2023-05-10T11:31:19;4.88;;;1.60;;
50671;SDS011;46021;55.882;37.654;2023-05-10T11:33:48;4.50;;;1.65;;
50671;SDS011;46021;55.882;37.654;2023-05-10T11:36:16;9.48;;;1.70;;
50671;SDS011;46021;55.882;37.654;2023-05-10T11:38:45;9.05;;;2.05;;
50671;SDS011;46021;55.882;37.654;2023-05-10T11:41:15;5.18;;;1.73;;
50671;SDS011;46021;55.882;37.654;2023-05-10T11:43:44;3.28;;;1.52;;
50671;SDS011;46021;55.882;37.654;2023-05-10T11:46:14;3.97;;;1.50;;
50671;SDS011;46021;55.882;37.654;2023-05-10T11:48:42;3.90;;;1.80;;
50671;SDS011;46021;55.882;37.654;2023-05-10T11:51:10;4.82;;;1.50;;
50671;SDS011;46021;55.882;37.654;2023-05-10T11:53:37;3.15;;;1.60;;
50671;SDS011;46021;55.882;37.654;2023-05-10T11:56:07;2.58;;;1.60;;
50671;SDS011;46021;55.882;37.654;2023-05-10T11:58:35;3.22;;;1.63;;
50671;SDS011;46021;55.882;37.654;2023-05-10T12:01:03;4.43;;;1.48;;
50671;SDS011;46021;55.882;37.654;2023-05-10T12:03:31;5.80;;;1.67;;
50671;SDS011;46021;55.882;37.654;2023-05-10T12:05:59;5.22;;;2.13;;
50671;SDS011;46021;55.882;37.654;2023-05-10T12:08:28;5.20;;;2.28;;
50671;SDS011;46021;55.882;37.654;2023-05-10T12:11:04;6.88;;;2.20;;
50671;SDS011;46021;55.882;37.654;2023-05-10T12:13:37;9.53;;;1.97;;
50671;SDS011;46021;55.882;37.654;2023-05-10T12:16:12;3.85;;;1.73;;
50671;SDS011;46021;55.882;37.654;2023-05-10T12:18:40;3.42;;;1.63;;
50671;SDS011;46021;55.882;37.654;2023-05-10T12:21:09;6.00;;;1.77;;
50671;SDS011;46021;55.882;37.654;2023-05-10T12:23:37;3.92;;;1.38;;
50671;SDS011;46021;55.882;37.654;2023-05-10T12:26:05;7.20;;;1.80;;
50671;SDS011;46021;55.882;37.654;2023-05-10T12:28:33;3.80;;;1.98;;
50671;SDS011;46021;55.882;37.654;2023-05-10T12:31:01;3.45;;;1.60;;
50671;SDS011;46021;55.882;37.654;2023-05-10T12:33:35;6.28;;;2.40;;
50671;SDS011;46021;55.882;37.654;2023-05-10T12:36:04;6.50;;;1.60;;
50671;SDS011;46021;55.882;37.654;2023-05-10T12:38:32;21.55;;;2.25;;
50671;SDS011;46021;55.882;37.654;2023-05-10T12:41:01;5.20;;;2.10;;
50671;SDS011;46021;55.882;37.654;2023-05-10T12:43:31;5.30;;;1.90;;
50671;SDS011;46021;55.882;37.654;2023-05-10T12:45:58;7.72;;;1.80;;
50671;SDS011;46021;55.882;37.654;2023-05-10T12:48:30;6.18;;;2.15;;
50671;SDS011;46021;55.882;37.654;2023-05-10T12:50:59;3.40;;;1.80;;
50671;SDS011;46021;55.882;37.654;2023-05-10T12:53:26;9.95;;;5.18;;
50671;SDS011;46021;55.882;37.654;2023-05-10T12:55:53;6.53;;;2.05;;
50671;SDS011;46021;55.882;37.654;2023-05-10T12:58:20;3.45;;;1.88;;
50671;SDS011;46021;55.882;37.654;2023-05-10T13:00:49;4.82;;;1.80;;
50671;SDS011;46021;55.882;37.654;2023-05-10T13:03:17;6.65;;;1.90;;
50671;SDS011;46021;55.882;37.654;2023-05-10T13:05:44;2.60;;;1.30;;
50671;SDS011;46021;55.882;37.654;2023-05-10T13:08:12;4.15;;;2.00;;
50671;SDS011;46021;55.882;37.654;2023-05-10T13:10:39;3.60;;;1.67;;
50671;SDS011;46021;55.882;37.654;2023-05-10T13:13:06;1.98;;;1.23;;
50671;SDS011;46021;55.882;37.654;2023-05-10T13:15:34;3.75;;;1.63;;
50671;SDS011;46021;55.882;37.654;2023-05-10T13:18:03;5.60;;;1.80;;
50671;SDS011;46021;55.882;37.654;2023-05-10T13:20:30;3.40;;;1.63;;
50671;SDS011;46021;55.882;37.654;2023-05-10T13:22:57;5.68;;;1.63;;
50671;SDS011;46021;55.882;37.654;2023-05-10T13:25:24;7.55;;;1.90;;
50671;SDS011;46021;55.882;37.654;2023-05-10T13:27:51;3.17;;;1.60;;
50671;SDS011;46021;55.882;37.654;2023-05-10T13:30:19;7.88;;;1.95;;
50671;SDS011;46021;55.882;37.654;2023-05-10T13:32:46;9.77;;;2.45;;
50671;SDS011;46021;55.882;37.654;2023-05-10T13:35:14;4.57;;;1.90;;
50671;SDS011;46021;55.882;37.654;2023-05-10T13:37:42;10.70;;;1.90;;
50671;SDS011;46021;55.882;37.654;2023-05-10T13:40:09;16.25;;;1.95;;
50671;SDS011;46021;55.882;37.654;2023-05-10T13:42:37;7.75;;;1.40;;
50671;SDS011;46021;55.882;37.654;2023-05-10T13:45:04;6.50;;;2.17;;
50671;SDS011;46021;55.882;37.654;2023-05-10T13:47:33;6.35;;;1.60;;
50671;SDS011;46021;55.882;37.654;2023-05-10T13:50:00;5.55;;;2.15;;
50671;SDS011;46021;55.882;37.654;2023-05-10T13:52:33;7.85;;;1.90;;
50671;SDS011;46021;55.882;37.654;2023-05-10T13:55:01;6.90;;;2.10;;
50671;SDS011;46021;55.882;37.654;2023-05-10T13:57:30;3.67;;;1.63;;
50671;SDS011;46021;55.882;37.654;2023-05-10T13:59:58;8.18;;;1.63;;
50671;SDS011;46021;55.882;37.654;2023-05-10T14:02:25;5.10;;;2.25;;
50671;SDS011;46021;55.882;37.654;2023-05-10T14:07:19;5.07;;;2.08;;
50671;SDS011;46021;55.882;37.654;2023-05-10T14:09:48;5.97;;;1.60;;
50671;SDS011;46021;55.882;37.654;2023-05-10T14:12:15;3.80;;;1.90;;
50671;SDS011;46021;55.882;37.654;2023-05-10T14:14:42;3.00;;;1.52;;
50671;SDS011;46021;55.882;37.654;2023-05-10T14:17:10;4.03;;;1.90;;
50671;SDS011;46021;55.882;37.654;2023-05-10T14:19:37;9.95;;;2.30;;
50671;SDS011;46021;55.882;37.654;2023-05-10T14:22:04;2.90;;;1.55;;
50671;SDS011;46021;55.882;37.654;2023-05-10T14:24:32;4.15;;;2.33;;
50671;SDS011;46021;55.882;37.654;2023-05-10T14:27:01;2.65;;;1.52;;
50671;SDS011;46021;55.882;37.654;2023-05-10T14:29:28;4.38;;;1.65;;
50671;SDS011;46021;55.882;37.654;2023-05-10T14:31:55;3.60;;;2.25;;
50671;SDS011;46021;55.882;37.654;2023-05-10T14:34:22;3.75;;;1.77;;
50671;SDS011;46021;55.882;37.654;2023-05-10T14:36:49;2.80;;;1.63;;
50671;SDS011;46021;55.882;37.654;2023-05-10T14:39:16;2.65;;;1.50;;
50671;SDS011;46021;55.882;37.654;2023-05-10T14:41:43;5.75;;;1.90;;
50671;SDS011;46021;55.882;37.654;2023-05-10T14:44:12;5.32;;;2.03;;
50671;SDS011;46021;55.882;37.654;2023-05-10T14:46:40;3.97;;;1.70;;
50671;SDS011;46021;55.882;37.654;2023-05-10T14:49:08;4.07;;;1.67;;
50671;SDS011;46021;55.882;37.654;2023-05-10T14:51:35;3.35;;;1.67;;
50671;SDS011;46021;55.882;37.654;2023-05-10T14:54:03;4.57;;;1.58;;
50671;SDS011;46021;55.882;37.654;2023-05-10T14:56:30;4.78;;;1.73;;
50671;SDS011;46021;55.882;37.654;2023-05-10T14:58:58;3.30;;;1.80;;
50671;SDS011;46021;55.882;37.654;2023-05-10T15:01:27;5.35;;;1.77;;